createdAt,value
2017-05-07T00:00:12.859Z,51.50
2017-05-07T00:01:13.692Z,51.51
2017-05-07T00:02:12.791Z,51.50
2017-05-07T00:03:12.780Z,51.53
2017-05-07T00:04:13.460Z,51.50
2017-05-07T00:05:11.568Z,51.51
2017-05-07T00:06:11.494Z,51.35
2017-05-07T00:07:13.102Z,51.50
2017-05-07T00:08:12.701Z,51.50
2017-05-07T00:09:12.773Z,51.44
2017-05-07T00:10:11.643Z,51.49
2017-05-07T00:11:13.414Z,51.46
2017-05-07T00:12:13.094Z,51.50
2017-05-07T00:13:12.535Z,51.50
2017-05-07T00:14:13.209Z,51.49
2017-05-07T00:15:11.206Z,51.50
2017-05-07T00:16:12.511Z,51.49
2017-05-07T00:17:12.780Z,51.50
2017-05-07T00:18:13.800Z,51.48
2017-05-07T00:19:14.030Z,51.49
2017-05-07T00:20:13.794Z,51.51
2017-05-07T00:21:13.511Z,51.48
2017-05-07T00:22:13.131Z,51.48
2017-05-07T00:23:14.881Z,51.51
2017-05-07T00:24:13.393Z,51.50
2017-05-07T00:25:12.217Z,51.48
2017-05-07T00:26:12.961Z,51.47
2017-05-07T00:27:12.798Z,51.47
2017-05-07T00:28:13.474Z,51.47
2017-05-07T00:29:13.028Z,51.47
2017-05-07T00:30:12.608Z,51.52
2017-05-07T00:31:11.897Z,51.44
2017-05-07T00:32:13.439Z,50.70
2017-05-07T00:33:13.968Z,50.42
2017-05-07T00:34:12.574Z,50.47
2017-05-07T00:35:13.769Z,50.44
2017-05-07T00:36:13.021Z,51.20
2017-05-07T00:37:13.985Z,51.32
2017-05-07T00:38:12.313Z,51.42
2017-05-07T00:39:13.536Z,51.46
2017-05-07T00:40:11.349Z,51.52
2017-05-07T00:41:11.027Z,51.57
2017-05-07T00:42:12.348Z,51.59
2017-05-07T00:43:13.180Z,51.61
2017-05-07T00:44:11.226Z,51.65
2017-05-07T00:45:12.365Z,51.64
2017-05-07T00:46:12.652Z,51.66
2017-05-07T00:47:12.723Z,51.71
2017-05-07T00:48:13.148Z,51.73
2017-05-07T00:49:12.376Z,51.76
2017-05-07T00:50:12.388Z,51.80
2017-05-07T00:51:16.290Z,51.84
2017-05-07T00:52:13.007Z,51.91
2017-05-07T00:53:12.268Z,51.94
2017-05-07T00:54:13.462Z,51.98
2017-05-07T00:55:13.237Z,52.01
2017-05-07T00:56:12.765Z,52.04
2017-05-07T00:57:13.421Z,51.93
2017-05-07T00:58:12.525Z,51.30
2017-05-07T00:59:13.446Z,51.14
2017-05-07T01:00:14.352Z,51.05
2017-05-07T01:01:13.006Z,51.30
2017-05-07T01:02:12.236Z,51.83
2017-05-07T01:03:13.013Z,52.00
2017-05-07T01:04:13.022Z,52.05
2017-05-07T01:05:12.775Z,52.05
2017-05-07T01:06:13.322Z,52.01
2017-05-07T01:07:12.469Z,52.06
2017-05-07T01:08:14.117Z,52.07
2017-05-07T01:09:12.392Z,52.04
2017-05-07T01:10:12.545Z,52.00
2017-05-07T01:11:14.416Z,52.02
2017-05-07T01:12:12.575Z,52.02
2017-05-07T01:13:11.862Z,52.01
2017-05-07T01:14:13.517Z,51.97
2017-05-07T01:15:13.474Z,51.92
2017-05-07T01:16:12.604Z,51.91
2017-05-07T01:17:11.460Z,51.91
2017-05-07T01:18:13.159Z,51.00
2017-05-07T01:19:11.086Z,50.90
2017-05-07T01:20:12.932Z,50.79
2017-05-07T01:21:12.830Z,50.76
2017-05-07T01:22:13.668Z,50.73
2017-05-07T01:23:12.731Z,50.74
2017-05-07T01:24:13.453Z,50.76
2017-05-07T01:25:11.553Z,50.81
2017-05-07T01:26:13.063Z,50.81
2017-05-07T01:27:12.042Z,50.80
2017-05-07T01:28:12.776Z,51.04
2017-05-07T01:29:13.509Z,51.57
2017-05-07T01:30:12.438Z,51.72
2017-05-07T01:31:11.234Z,51.80
2017-05-07T01:32:11.184Z,51.85
2017-05-07T01:33:12.338Z,51.06
2017-05-07T01:34:19.657Z,50.90
2017-05-07T01:35:13.612Z,50.80
2017-05-07T01:36:15.073Z,50.80
2017-05-07T01:37:12.387Z,50.79
2017-05-07T01:38:12.566Z,50.78
2017-05-07T01:39:11.241Z,50.78
2017-05-07T01:40:14.079Z,50.79
2017-05-07T01:41:11.094Z,50.79
2017-05-07T01:42:13.235Z,50.81
2017-05-07T01:43:12.440Z,50.80
2017-05-07T01:44:13.082Z,51.05
2017-05-07T01:45:12.665Z,51.65
2017-05-07T01:46:14.363Z,51.80
2017-05-07T01:47:11.496Z,51.83
2017-05-07T01:48:11.446Z,51.02
2017-05-07T01:49:12.949Z,51.02
2017-05-07T01:50:16.164Z,51.02
2017-05-07T01:51:12.216Z,51.73
2017-05-07T01:52:13.182Z,51.90
2017-05-07T01:53:12.399Z,51.96
2017-05-07T01:54:12.961Z,51.99
2017-05-07T01:55:12.702Z,52.00
2017-05-07T01:56:13.448Z,52.01
2017-05-07T01:57:12.567Z,52.04
2017-05-07T01:58:12.765Z,52.03
2017-05-07T01:59:12.995Z,52.03
2017-05-07T02:00:14.760Z,52.05
2017-05-07T02:01:11.331Z,52.06
2017-05-07T02:02:12.688Z,52.03
2017-05-07T02:03:12.889Z,52.07
2017-05-07T02:04:13.776Z,52.07
2017-05-07T02:05:12.870Z,52.07
2017-05-07T02:06:11.682Z,52.05
2017-05-07T02:07:13.751Z,52.02
2017-05-07T02:08:12.860Z,52.04
2017-05-07T02:09:13.076Z,52.05
2017-05-07T02:10:12.234Z,52.05
2017-05-07T02:11:12.978Z,52.01
2017-05-07T02:12:13.799Z,51.99
2017-05-07T02:13:12.927Z,51.96
2017-05-07T02:14:13.176Z,51.99
2017-05-07T02:15:12.898Z,51.94
2017-05-07T02:16:12.995Z,51.99
2017-05-07T02:17:13.737Z,51.99
2017-05-07T02:18:12.974Z,51.97
2017-05-07T02:19:13.585Z,51.98
2017-05-07T02:20:19.194Z,51.96
2017-05-07T02:21:12.213Z,51.93
2017-05-07T02:22:12.283Z,51.96
2017-05-07T02:23:12.993Z,51.96
2017-05-07T02:24:13.179Z,51.95
2017-05-07T02:25:12.765Z,51.93
2017-05-07T02:26:14.818Z,51.93
2017-05-07T02:27:13.402Z,51.91
2017-05-07T02:28:13.125Z,51.92
2017-05-07T02:29:13.807Z,51.91
2017-05-07T02:30:13.576Z,51.89
2017-05-07T02:31:10.547Z,51.92
2017-05-07T02:32:12.850Z,51.92
2017-05-07T02:33:15.488Z,51.90
2017-05-07T02:34:12.917Z,51.89
2017-05-07T02:35:20.332Z,51.92
2017-05-07T02:36:13.018Z,51.89
2017-05-07T02:37:13.629Z,51.92
2017-05-07T02:38:12.617Z,51.92
2017-05-07T02:39:12.996Z,51.94
2017-05-07T02:40:11.907Z,51.89
2017-05-07T02:41:11.223Z,51.96
2017-05-07T02:42:12.404Z,51.21
2017-05-07T02:43:12.496Z,51.80
2017-05-07T02:44:12.417Z,51.91
2017-05-07T02:45:12.570Z,51.95
2017-05-07T02:46:13.409Z,51.93
2017-05-07T02:47:12.695Z,51.91
2017-05-07T02:48:12.796Z,51.96
2017-05-07T02:49:15.309Z,51.99
2017-05-07T02:50:12.425Z,52.00
2017-05-07T02:51:13.185Z,52.00
2017-05-07T02:52:13.060Z,52.01
2017-05-07T02:53:12.622Z,52.00
2017-05-07T02:54:13.476Z,52.03
2017-05-07T02:55:10.711Z,52.07
2017-05-07T02:56:14.660Z,52.03
2017-05-07T02:57:12.763Z,52.01
2017-05-07T02:58:12.833Z,52.04
2017-05-07T02:59:13.817Z,52.05
2017-05-07T03:00:12.974Z,52.06
2017-05-07T03:01:12.047Z,52.03
2017-05-07T03:02:13.003Z,52.03
2017-05-07T03:03:12.257Z,52.05
2017-05-07T03:04:12.193Z,52.06
2017-05-07T03:05:12.711Z,52.04
2017-05-07T03:06:13.051Z,52.04
2017-05-07T03:07:12.210Z,52.07
2017-05-07T03:08:13.005Z,52.07
2017-05-07T03:09:13.202Z,52.10
2017-05-07T03:10:12.732Z,52.08
2017-05-07T03:11:13.464Z,52.10
2017-05-07T03:12:13.233Z,52.11
2017-05-07T03:13:13.450Z,52.12
2017-05-07T03:14:12.865Z,52.13
2017-05-07T03:15:12.999Z,52.09
2017-05-07T03:16:12.004Z,52.09
2017-05-07T03:17:11.012Z,52.12
2017-05-07T03:18:13.935Z,51.31
2017-05-07T03:19:12.829Z,51.15
2017-05-07T03:20:13.695Z,51.07
2017-05-07T03:21:11.018Z,50.91
2017-05-07T03:22:12.178Z,51.80
2017-05-07T03:23:12.495Z,51.94
2017-05-07T03:24:12.723Z,52.04
2017-05-07T03:25:12.822Z,52.08
2017-05-07T03:26:13.376Z,52.11
2017-05-07T03:27:12.466Z,52.11
2017-05-07T03:28:12.952Z,52.13
2017-05-07T03:29:12.175Z,52.12
2017-05-07T03:30:10.308Z,52.13
2017-05-07T03:31:13.672Z,51.56
2017-05-07T03:32:13.221Z,51.89
2017-05-07T03:33:12.628Z,51.36
2017-05-07T03:34:14.325Z,51.40
2017-05-07T03:35:12.478Z,51.91
2017-05-07T03:36:12.086Z,52.04
2017-05-07T03:37:12.416Z,51.28
2017-05-07T03:38:13.185Z,51.16
2017-05-07T03:39:09.987Z,51.10
2017-05-07T03:40:12.094Z,51.86
2017-05-07T03:41:12.236Z,51.98
2017-05-07T03:42:15.000Z,52.10
2017-05-07T03:43:13.031Z,52.14
2017-05-07T03:44:13.439Z,52.13
2017-05-07T03:45:13.186Z,52.17
2017-05-07T03:46:12.214Z,52.18
2017-05-07T03:47:12.778Z,52.19
2017-05-07T03:48:13.641Z,52.20
2017-05-07T03:49:12.720Z,52.15
2017-05-07T03:50:13.612Z,52.18
2017-05-07T03:51:12.770Z,52.20
2017-05-07T03:52:13.047Z,52.05
2017-05-07T03:53:12.223Z,51.37
2017-05-07T03:54:13.265Z,51.31
2017-05-07T03:55:12.330Z,51.98
2017-05-07T03:56:12.439Z,52.08
2017-05-07T03:57:15.272Z,52.17
2017-05-07T03:58:12.862Z,52.18
2017-05-07T03:59:13.039Z,52.21
2017-05-07T04:00:12.984Z,52.22
2017-05-07T04:01:12.965Z,52.24
2017-05-07T04:02:13.719Z,52.21
2017-05-07T04:03:14.170Z,52.19
2017-05-07T04:04:13.792Z,52.23
2017-05-07T04:05:11.552Z,52.27
2017-05-07T04:06:14.685Z,52.27
2017-05-07T04:07:14.392Z,52.25
2017-05-07T04:08:13.183Z,52.24
2017-05-07T04:09:12.369Z,52.23
2017-05-07T04:10:12.605Z,52.22
2017-05-07T04:11:12.734Z,52.23
2017-05-07T04:12:19.022Z,52.26
2017-05-07T04:13:12.807Z,52.26
2017-05-07T04:14:12.961Z,52.25
2017-05-07T04:15:12.616Z,52.26
2017-05-07T04:16:13.277Z,52.19
2017-05-07T04:17:12.592Z,52.24
2017-05-07T04:18:13.624Z,52.26
2017-05-07T04:19:12.927Z,52.29
2017-05-07T04:20:12.055Z,52.27
2017-05-07T04:21:12.628Z,52.27
2017-05-07T04:22:12.781Z,52.28
2017-05-07T04:23:11.530Z,52.25
2017-05-07T04:24:13.483Z,52.26
2017-05-07T04:25:13.152Z,52.24
2017-05-07T04:26:15.118Z,52.31
2017-05-07T04:27:12.451Z,52.29
2017-05-07T04:28:12.529Z,52.30
2017-05-07T04:29:12.431Z,52.29
2017-05-07T04:30:12.514Z,52.32
2017-05-07T04:31:12.587Z,52.28
2017-05-07T04:32:14.432Z,52.31
2017-05-07T04:33:13.585Z,52.30
2017-05-07T04:34:14.374Z,52.29
2017-05-07T04:35:13.922Z,52.31
2017-05-07T04:36:13.165Z,52.28
2017-05-07T04:37:13.246Z,52.32
2017-05-07T04:38:12.209Z,52.32
2017-05-07T04:39:12.652Z,52.30
2017-05-07T04:40:13.296Z,52.34
2017-05-07T04:41:12.532Z,52.36
2017-05-07T04:42:12.715Z,52.34
2017-05-07T04:43:12.945Z,52.33
2017-05-07T04:44:12.603Z,52.34
2017-05-07T04:45:12.797Z,52.33
2017-05-07T04:46:12.993Z,52.21
2017-05-07T04:47:13.340Z,52.22
2017-05-07T04:48:12.581Z,52.25
2017-05-07T04:49:10.010Z,52.23
2017-05-07T04:50:12.560Z,52.23
2017-05-07T04:51:12.730Z,52.23
2017-05-07T04:52:09.915Z,52.23
2017-05-07T04:53:14.020Z,52.26
2017-05-07T04:54:12.820Z,52.21
2017-05-07T04:55:13.910Z,52.19
2017-05-07T04:56:13.630Z,52.06
2017-05-07T04:57:12.971Z,51.38
2017-05-07T04:58:12.773Z,51.23
2017-05-07T04:59:14.922Z,51.11
2017-05-07T05:00:13.729Z,51.04
2017-05-07T05:01:12.913Z,51.76
2017-05-07T05:02:12.979Z,51.88
2017-05-07T05:03:15.065Z,51.97
2017-05-07T05:04:13.382Z,51.96
2017-05-07T05:05:12.592Z,51.93
2017-05-07T05:06:13.526Z,51.96
2017-05-07T05:07:11.303Z,51.90
2017-05-07T05:08:14.422Z,51.91
2017-05-07T05:09:12.693Z,51.90
2017-05-07T05:10:12.619Z,51.87
2017-05-07T05:11:10.093Z,51.87
2017-05-07T05:12:13.038Z,51.87
2017-05-07T05:13:12.207Z,51.85
2017-05-07T05:14:13.096Z,51.83
2017-05-07T05:15:12.806Z,51.86
2017-05-07T05:16:12.779Z,51.86
2017-05-07T05:17:13.809Z,51.84
2017-05-07T05:18:12.945Z,51.80
2017-05-07T05:19:12.038Z,51.75
2017-05-07T05:20:15.999Z,51.77
2017-05-07T05:21:12.173Z,51.70
2017-05-07T05:22:12.922Z,51.76
2017-05-07T05:23:12.252Z,51.73
2017-05-07T05:24:14.182Z,51.71
2017-05-07T05:25:11.348Z,51.68
2017-05-07T05:26:12.401Z,51.70
2017-05-07T05:27:13.264Z,51.54
2017-05-07T05:28:12.483Z,50.84
2017-05-07T05:29:12.571Z,50.96
2017-05-07T05:30:11.285Z,51.36
2017-05-07T05:31:12.390Z,51.43
2017-05-07T05:32:13.820Z,51.53
2017-05-07T05:33:13.632Z,51.57
2017-05-07T05:34:14.014Z,51.55
2017-05-07T05:35:12.150Z,51.53
2017-05-07T05:36:14.272Z,51.53
2017-05-07T05:37:12.505Z,51.53
2017-05-07T05:38:12.763Z,51.48
2017-05-07T05:39:11.416Z,51.50
2017-05-07T05:40:13.023Z,51.48
2017-05-07T05:41:12.639Z,51.49
2017-05-07T05:42:12.801Z,51.47
2017-05-07T05:43:12.965Z,51.48
2017-05-07T05:44:12.702Z,51.43
2017-05-07T05:45:12.804Z,51.47
2017-05-07T05:46:13.225Z,51.45
2017-05-07T05:47:12.389Z,51.40
2017-05-07T05:48:14.163Z,51.41
2017-05-07T05:49:12.287Z,51.42
2017-05-07T05:50:12.932Z,51.41
2017-05-07T05:51:11.848Z,51.38
2017-05-07T05:52:14.576Z,51.38
2017-05-07T05:53:13.327Z,51.44
2017-05-07T05:54:13.060Z,51.39
2017-05-07T05:55:12.913Z,51.39
2017-05-07T05:56:13.672Z,51.34
2017-05-07T05:57:10.303Z,51.32
2017-05-07T05:58:12.590Z,51.30
2017-05-07T05:59:12.753Z,51.32
2017-05-07T06:00:13.187Z,51.32
2017-05-07T06:01:12.212Z,51.25
2017-05-07T06:02:12.903Z,51.29
2017-05-07T06:03:11.961Z,51.27
2017-05-07T06:04:12.282Z,51.25
2017-05-07T06:05:12.732Z,51.26
2017-05-07T06:06:13.826Z,51.21
2017-05-07T06:07:13.472Z,50.57
2017-05-07T06:08:13.777Z,50.31
2017-05-07T06:09:11.578Z,50.25
2017-05-07T06:10:13.784Z,50.22
2017-05-07T06:11:13.701Z,50.16
2017-05-07T06:12:13.512Z,50.14
2017-05-07T06:13:09.887Z,50.11
2017-05-07T06:14:12.143Z,50.05
2017-05-07T06:15:12.219Z,50.07
2017-05-07T06:16:12.400Z,50.84
2017-05-07T06:17:11.584Z,51.03
2017-05-07T06:18:13.093Z,51.06
2017-05-07T06:19:12.645Z,51.10
2017-05-07T06:20:13.811Z,51.09
2017-05-07T06:21:13.604Z,51.12
2017-05-07T06:22:15.503Z,51.15
2017-05-07T06:23:12.483Z,51.13
2017-05-07T06:24:12.758Z,51.08
2017-05-07T06:25:10.938Z,51.10
2017-05-07T06:26:13.765Z,51.08
2017-05-07T06:27:13.695Z,51.11
2017-05-07T06:28:13.292Z,51.13
2017-05-07T06:29:12.229Z,51.15
2017-05-07T06:30:13.426Z,51.14
2017-05-07T06:31:12.814Z,51.13
2017-05-07T06:32:11.977Z,51.03
2017-05-07T06:33:13.953Z,50.57
2017-05-07T06:34:12.755Z,50.98
2017-05-07T06:35:14.261Z,51.03
2017-05-07T06:36:14.045Z,51.07
2017-05-07T06:37:13.062Z,51.04
2017-05-07T06:38:10.498Z,51.06
2017-05-07T06:39:12.828Z,51.04
2017-05-07T06:40:14.408Z,51.07
2017-05-07T06:41:13.222Z,51.04
2017-05-07T06:42:13.005Z,51.07
2017-05-07T06:43:12.798Z,51.07
2017-05-07T06:44:11.419Z,51.05
2017-05-07T06:45:13.254Z,51.05
2017-05-07T06:46:12.831Z,51.08
2017-05-07T06:47:13.770Z,51.05
2017-05-07T06:48:12.791Z,50.98
2017-05-07T06:49:12.183Z,50.88
2017-05-07T06:50:12.708Z,50.43
2017-05-07T06:51:13.576Z,50.86
2017-05-07T06:52:13.095Z,50.98
2017-05-07T06:53:11.271Z,51.14
2017-05-07T06:54:12.969Z,51.18
2017-05-07T06:55:12.736Z,51.21
2017-05-07T06:56:11.674Z,51.27
2017-05-07T06:57:12.933Z,51.23
2017-05-07T06:58:13.738Z,51.36
2017-05-07T06:59:12.791Z,51.43
2017-05-07T07:00:14.419Z,51.60
2017-05-07T07:01:12.606Z,51.72
2017-05-07T07:02:14.716Z,51.78
2017-05-07T07:03:12.948Z,51.86
2017-05-07T07:04:10.968Z,51.88
2017-05-07T07:05:12.396Z,52.00
2017-05-07T07:06:12.382Z,52.16
2017-05-07T07:07:12.790Z,52.26
2017-05-07T07:08:12.936Z,52.32
2017-05-07T07:09:12.962Z,52.31
2017-05-07T07:10:11.178Z,52.58
2017-05-07T07:11:14.048Z,51.62
2017-05-07T07:12:12.826Z,51.59
2017-05-07T07:13:14.716Z,52.23
2017-05-07T07:14:11.652Z,52.84
2017-05-07T07:15:13.640Z,53.22
2017-05-07T07:16:13.174Z,53.32
2017-05-07T07:17:12.524Z,53.57
2017-05-07T07:18:12.703Z,53.38
2017-05-07T07:19:12.964Z,53.39
2017-05-07T07:20:11.992Z,53.39
2017-05-07T07:21:13.151Z,53.33
2017-05-07T07:22:12.246Z,53.35
2017-05-07T07:23:13.939Z,53.37
2017-05-07T07:24:12.136Z,53.33
2017-05-07T07:25:12.697Z,53.24
2017-05-07T07:26:12.978Z,53.27
2017-05-07T07:27:12.645Z,53.28
2017-05-07T07:28:13.303Z,53.21
2017-05-07T07:29:10.564Z,53.25
2017-05-07T07:30:09.659Z,53.15
2017-05-07T07:31:13.510Z,53.14
2017-05-07T07:32:12.952Z,53.08
2017-05-07T07:33:12.693Z,53.10
2017-05-07T07:34:14.813Z,53.31
2017-05-07T07:35:11.301Z,53.30
2017-05-07T07:36:14.506Z,53.41
2017-05-07T07:37:12.945Z,54.73
2017-05-07T07:38:12.013Z,54.20
2017-05-07T07:39:12.392Z,54.11
2017-05-07T07:40:12.607Z,54.10
2017-05-07T07:41:12.702Z,54.24
2017-05-07T07:42:13.475Z,54.36
2017-05-07T07:43:13.079Z,54.39
2017-05-07T07:44:14.244Z,54.70
2017-05-07T07:45:12.629Z,54.45
2017-05-07T07:46:13.722Z,54.52
2017-05-07T07:47:13.465Z,54.50
2017-05-07T07:48:11.243Z,54.80
2017-05-07T07:49:13.172Z,54.57
2017-05-07T07:50:13.007Z,54.71
2017-05-07T07:51:12.636Z,54.84
2017-05-07T07:52:12.828Z,54.80
2017-05-07T07:53:11.667Z,54.63
2017-05-07T07:54:13.100Z,54.70
2017-05-07T07:55:12.672Z,54.61
2017-05-07T07:56:14.468Z,53.80
2017-05-07T07:57:13.923Z,53.75
2017-05-07T07:58:13.629Z,54.47
2017-05-07T07:59:12.818Z,54.59
2017-05-07T08:00:13.182Z,54.60
2017-05-07T08:01:12.938Z,54.57
2017-05-07T08:02:13.860Z,54.61
2017-05-07T08:03:13.590Z,54.54
2017-05-07T08:04:12.781Z,54.56
2017-05-07T08:05:13.407Z,54.57
2017-05-07T08:06:10.767Z,54.53
2017-05-07T08:07:13.766Z,54.52
2017-05-07T08:08:12.919Z,54.50
2017-05-07T08:09:13.060Z,54.41
2017-05-07T08:10:12.216Z,54.40
2017-05-07T08:11:12.481Z,54.37
2017-05-07T08:12:12.637Z,54.36
2017-05-07T08:13:13.232Z,54.41
2017-05-07T08:14:13.562Z,54.35
2017-05-07T08:15:13.048Z,54.31
2017-05-07T08:16:12.472Z,54.31
2017-05-07T08:17:13.164Z,54.28
2017-05-07T08:18:12.695Z,54.27
2017-05-07T08:19:12.765Z,54.24
2017-05-07T08:20:11.728Z,54.23
2017-05-07T08:21:10.476Z,54.20
2017-05-07T08:22:10.761Z,54.16
2017-05-07T08:23:10.920Z,54.14
2017-05-07T08:24:12.933Z,54.10
2017-05-07T08:25:12.917Z,54.10
2017-05-07T08:26:13.141Z,54.06
2017-05-07T08:27:12.514Z,54.08
2017-05-07T08:28:12.560Z,54.04
2017-05-07T08:29:13.233Z,54.01
2017-05-07T08:30:12.382Z,54.03
2017-05-07T08:31:13.924Z,53.99
2017-05-07T08:32:14.174Z,53.97
2017-05-07T08:33:15.190Z,53.96
2017-05-07T08:34:14.951Z,53.95
2017-05-07T08:35:14.328Z,53.92
2017-05-07T08:36:12.418Z,53.91
2017-05-07T08:37:09.553Z,53.87
2017-05-07T08:38:13.573Z,53.88
2017-05-07T08:39:13.211Z,53.86
2017-05-07T08:40:12.670Z,53.83
2017-05-07T08:41:11.591Z,53.82
2017-05-07T08:42:12.734Z,53.81
2017-05-07T08:43:13.795Z,53.79
2017-05-07T08:44:12.937Z,53.79
2017-05-07T08:45:13.200Z,53.78
2017-05-07T08:46:13.183Z,53.77
2017-05-07T08:47:12.991Z,53.74
2017-05-07T08:48:12.761Z,53.73
2017-05-07T08:49:13.451Z,53.71
2017-05-07T08:50:13.182Z,53.70
2017-05-07T08:51:12.474Z,53.70
2017-05-07T08:52:12.739Z,53.68
2017-05-07T08:53:13.563Z,53.69
2017-05-07T08:54:13.182Z,53.65
2017-05-07T08:55:12.373Z,53.62
2017-05-07T08:56:12.472Z,53.77
2017-05-07T08:57:12.589Z,53.79
2017-05-07T08:58:13.199Z,53.89
2017-05-07T08:59:12.942Z,53.87
2017-05-07T09:00:11.860Z,53.82
2017-05-07T09:01:11.682Z,53.81
2017-05-07T09:02:12.895Z,52.90
2017-05-07T09:03:13.809Z,52.82
2017-05-07T09:04:11.962Z,52.86
2017-05-07T09:05:13.793Z,53.29
2017-05-07T09:06:13.039Z,53.35
2017-05-07T09:07:12.254Z,53.66
2017-05-07T09:08:13.112Z,54.13
2017-05-07T09:09:12.221Z,54.23
2017-05-07T09:10:11.030Z,54.27
2017-05-07T09:11:12.595Z,54.49
2017-05-07T09:12:13.254Z,54.52
2017-05-07T09:13:12.950Z,54.43
2017-05-07T09:14:12.616Z,54.40
2017-05-07T09:15:12.780Z,54.31
2017-05-07T09:16:12.962Z,54.19
2017-05-07T09:17:12.810Z,54.11
2017-05-07T09:18:14.608Z,54.04
2017-05-07T09:19:13.269Z,53.98
2017-05-07T09:20:14.111Z,53.96
2017-05-07T09:21:12.757Z,53.93
2017-05-07T09:22:13.156Z,53.87
2017-05-07T09:23:12.503Z,53.82
2017-05-07T09:24:12.955Z,53.76
2017-05-07T09:25:12.697Z,53.61
2017-05-07T09:26:12.776Z,52.87
2017-05-07T09:27:13.501Z,52.66
2017-05-07T09:28:12.938Z,52.53
2017-05-07T09:29:12.214Z,52.49
2017-05-07T09:30:13.992Z,52.43
2017-05-07T09:31:12.152Z,52.35
2017-05-07T09:32:13.596Z,52.29
2017-05-07T09:33:09.823Z,52.26
2017-05-07T09:34:12.604Z,52.24
2017-05-07T09:35:13.240Z,52.20
2017-05-07T09:36:12.422Z,52.15
2017-05-07T09:37:13.195Z,52.14
2017-05-07T09:38:15.029Z,52.07
2017-05-07T09:39:12.328Z,52.33
2017-05-07T09:40:11.127Z,52.85
2017-05-07T09:41:12.424Z,53.02
2017-05-07T09:42:12.851Z,53.08
2017-05-07T09:43:14.494Z,53.14
2017-05-07T09:44:12.688Z,53.13
2017-05-07T09:45:13.198Z,53.09
2017-05-07T09:46:11.651Z,53.10
2017-05-07T09:47:13.097Z,53.09
2017-05-07T09:48:12.917Z,53.03
2017-05-07T09:49:14.219Z,53.02
2017-05-07T09:50:11.409Z,53.01
2017-05-07T09:51:13.138Z,53.01
2017-05-07T09:52:12.566Z,53.03
2017-05-07T09:53:12.596Z,53.04
2017-05-07T09:54:13.358Z,53.08
2017-05-07T09:55:12.587Z,53.04
2017-05-07T09:56:12.889Z,53.07
2017-05-07T09:57:13.565Z,53.06
2017-05-07T09:58:13.503Z,53.07
2017-05-07T09:59:13.675Z,53.03
2017-05-07T10:00:12.944Z,53.00
2017-05-07T10:01:11.896Z,52.96
2017-05-07T10:02:12.239Z,52.96
2017-05-07T10:03:12.830Z,52.97
2017-05-07T10:04:13.009Z,52.95
2017-05-07T10:05:14.110Z,53.06
2017-05-07T10:06:12.433Z,53.07
2017-05-07T10:07:12.988Z,53.16
2017-05-07T10:08:12.213Z,53.23
2017-05-07T10:09:12.390Z,53.39
2017-05-07T10:10:12.463Z,53.46
2017-05-07T10:11:12.515Z,53.59
2017-05-07T10:12:13.059Z,53.69
2017-05-07T10:13:11.887Z,53.71
2017-05-07T10:14:13.616Z,53.77
2017-05-07T10:15:13.140Z,53.61
2017-05-07T10:16:12.291Z,53.64
2017-05-07T10:17:12.919Z,53.67
2017-05-07T10:18:13.128Z,53.58
2017-05-07T10:19:12.392Z,53.55
2017-05-07T10:20:13.155Z,53.61
2017-05-07T10:21:12.266Z,53.56
2017-05-07T10:22:13.729Z,53.65
2017-05-07T10:23:13.638Z,53.87
2017-05-07T10:24:14.906Z,53.89
2017-05-07T10:25:12.943Z,53.83
2017-05-07T10:26:11.105Z,53.84
2017-05-07T10:27:12.485Z,53.98
2017-05-07T10:28:13.234Z,53.97
2017-05-07T10:29:14.031Z,53.72
2017-05-07T10:30:12.819Z,53.83
2017-05-07T10:31:11.409Z,53.81
2017-05-07T10:32:13.545Z,53.80
2017-05-07T10:33:14.728Z,53.77
2017-05-07T10:34:13.946Z,53.71
2017-05-07T10:35:12.273Z,53.68
2017-05-07T10:36:12.859Z,53.64
2017-05-07T10:37:15.157Z,53.64
2017-05-07T10:38:12.411Z,53.60
2017-05-07T10:39:12.973Z,53.62
2017-05-07T10:40:10.644Z,53.60
2017-05-07T10:41:12.705Z,53.58
2017-05-07T10:42:11.354Z,53.61
2017-05-07T10:43:12.943Z,53.61
2017-05-07T10:44:12.583Z,53.63
2017-05-07T10:45:13.575Z,53.67
2017-05-07T10:46:12.954Z,53.62
2017-05-07T10:47:12.276Z,52.89
2017-05-07T10:48:12.411Z,52.72
2017-05-07T10:49:13.117Z,52.73
2017-05-07T10:50:12.247Z,53.61
2017-05-07T10:51:12.659Z,53.73
2017-05-07T10:52:12.841Z,53.86
2017-05-07T10:53:14.103Z,53.99
2017-05-07T10:54:12.921Z,54.05
2017-05-07T10:55:13.065Z,54.02
2017-05-07T10:56:12.073Z,54.11
2017-05-07T10:57:10.543Z,54.39
2017-05-07T10:58:12.774Z,54.58
2017-05-07T10:59:13.789Z,54.57
2017-05-07T11:00:13.488Z,54.70
2017-05-07T11:01:13.129Z,54.62
2017-05-07T11:02:12.181Z,54.61
2017-05-07T11:03:12.973Z,54.75
2017-05-07T11:04:11.014Z,54.82
2017-05-07T11:05:12.851Z,54.74
2017-05-07T11:06:13.574Z,54.77
2017-05-07T11:07:13.219Z,54.81
2017-05-07T11:08:12.257Z,55.06
2017-05-07T11:09:12.926Z,55.29
2017-05-07T11:10:12.032Z,55.15
2017-05-07T11:11:12.364Z,56.08
2017-05-07T11:12:14.395Z,55.85
2017-05-07T11:13:13.229Z,55.76
2017-05-07T11:14:12.262Z,56.08
2017-05-07T11:15:13.068Z,56.23
2017-05-07T11:16:12.340Z,56.46
2017-05-07T11:17:12.915Z,56.36
2017-05-07T11:18:13.679Z,55.67
2017-05-07T11:19:12.936Z,55.50
2017-05-07T11:20:12.213Z,56.14
2017-05-07T11:21:12.913Z,56.46
2017-05-07T11:22:12.183Z,56.58
2017-05-07T11:23:12.887Z,56.04
2017-05-07T11:24:12.962Z,55.74
2017-05-07T11:25:12.780Z,56.80
2017-05-07T11:26:13.242Z,56.70
2017-05-07T11:27:12.966Z,56.65
2017-05-07T11:28:12.775Z,56.78
2017-05-07T11:29:11.656Z,56.69
2017-05-07T11:30:12.995Z,56.32
2017-05-07T11:31:12.732Z,56.59
2017-05-07T11:32:14.173Z,57.37
2017-05-07T11:33:13.211Z,57.04
2017-05-07T11:34:14.452Z,56.79
2017-05-07T11:35:13.160Z,56.51
2017-05-07T11:36:13.119Z,56.97
2017-05-07T11:37:13.073Z,56.66
2017-05-07T11:38:12.282Z,57.08
2017-05-07T11:39:13.485Z,56.93
2017-05-07T11:40:19.826Z,57.13
2017-05-07T11:41:13.635Z,57.04
2017-05-07T11:42:11.800Z,57.04
2017-05-07T11:43:12.990Z,56.05
2017-05-07T11:44:13.068Z,56.00
2017-05-07T11:45:12.503Z,55.92
2017-05-07T11:46:13.482Z,55.83
2017-05-07T11:47:12.707Z,55.55
2017-05-07T11:48:13.358Z,56.51
2017-05-07T11:49:12.976Z,56.85
2017-05-07T11:50:10.793Z,56.40
2017-05-07T11:51:13.769Z,55.85
2017-05-07T11:52:15.161Z,55.13
2017-05-07T11:53:13.228Z,54.74
2017-05-07T11:54:12.250Z,54.46
2017-05-07T11:55:12.395Z,55.42
2017-05-07T11:56:11.501Z,55.43
2017-05-07T11:57:13.088Z,55.57
2017-05-07T11:58:09.925Z,55.75
2017-05-07T11:59:11.966Z,55.87
2017-05-07T12:00:11.174Z,55.94
2017-05-07T12:01:11.149Z,56.29
2017-05-07T12:02:12.576Z,55.42
2017-05-07T12:03:13.237Z,54.91
2017-05-07T12:04:13.218Z,54.72
2017-05-07T12:05:12.538Z,54.76
2017-05-07T12:06:13.167Z,55.56
2017-05-07T12:07:14.141Z,55.86
2017-05-07T12:08:12.556Z,55.89
2017-05-07T12:09:11.589Z,55.91
2017-05-07T12:10:13.065Z,55.87
2017-05-07T12:11:12.590Z,55.22
2017-05-07T12:12:12.789Z,55.26
2017-05-07T12:13:13.583Z,55.22
2017-05-07T12:14:12.870Z,55.19
2017-05-07T12:15:14.082Z,55.27
2017-05-07T12:16:12.463Z,55.18
2017-05-07T12:17:13.316Z,56.16
2017-05-07T12:18:12.624Z,56.59
2017-05-07T12:19:11.692Z,57.22
2017-05-07T12:20:12.605Z,57.33
2017-05-07T12:21:12.563Z,57.03
2017-05-07T12:22:12.695Z,57.35
2017-05-07T12:23:14.511Z,57.47
2017-05-07T12:24:12.797Z,57.51
2017-05-07T12:25:13.502Z,57.49
2017-05-07T12:26:13.126Z,57.42
2017-05-07T12:27:12.975Z,57.26
2017-05-07T12:28:13.766Z,57.45
2017-05-07T12:29:13.444Z,57.32
2017-05-07T12:30:13.165Z,57.53
2017-05-07T12:31:13.892Z,57.51
2017-05-07T12:32:13.803Z,57.41
2017-05-07T12:33:14.313Z,57.20
2017-05-07T12:34:13.090Z,56.90
2017-05-07T12:35:13.299Z,56.73
2017-05-07T12:36:12.981Z,56.57
2017-05-07T12:37:12.779Z,56.52
2017-05-07T12:38:14.572Z,56.43
2017-05-07T12:39:13.616Z,56.37
2017-05-07T12:40:13.320Z,56.28
2017-05-07T12:41:12.780Z,56.23
2017-05-07T12:42:13.432Z,56.17
2017-05-07T12:43:12.761Z,56.12
2017-05-07T12:44:13.721Z,56.09
2017-05-07T12:45:14.189Z,56.02
2017-05-07T12:46:12.316Z,55.99
2017-05-07T12:47:13.168Z,55.93
2017-05-07T12:48:12.349Z,55.92
2017-05-07T12:49:12.609Z,55.87
2017-05-07T12:50:13.566Z,55.83
2017-05-07T12:51:13.328Z,55.85
2017-05-07T12:52:12.880Z,55.82